SLET/SRZ METAR and TAF weather

Enter ICAO airport designator
Station Type Date Time Source
SLET METAR 2023/01/30 12:00 UTC NOAA

SLET 301200Z 30011KT 6000 -RA BKN008 BKN020 FEW030CB 23/22 Q1010


Station Type Date Time Source
SLET Decoded METAR 2023/01/30 12:00 UTC NOAA

Santa Cruz / El Trompillo, Bolivia (SLET) 17-48S 063-11W 414M
Jan 30, 2023 - 07:00 AM EST / 2023.01.30 1200 UTC
Wind: from the WNW (300 degrees) at 13 MPH (11 KT):0
Visibility: 3 mile(s):0
Sky conditions: mostly cloudy
Weather: light rain; Cumulonimbus clouds observed
Temperature: 73 F (23 C)
Dew Point: 71 F (22 C)
Relative Humidity: 94%
Pressure (altimeter): 29.83 in. Hg (1010 hPa)
ob: SLET 301200Z 30011KT 6000 -RA BKN008 BKN020 FEW030CB 23/22 Q1010
cycle: 12

Station Type Date Time Source
SLET TAF 2023/01/30 12:47 UTC NOAA

TAF SLET 301000Z 3012/3112 34008KT 9999 BKN017 SCT070 TX31/3020Z TN22 /3109Z PROB30
TEMPO 3015/3017 SHRA FEW030CB
TEMPO 3018/3023 34010G20KT
TEMPO 3021/3102 FEW020
BECMG 3103/3105 34010KT SCT008 SCT015 PROB40
TEMPO 3107/3111 2000 BR BKN003

Example: see airport list